Time;durP1;ratioP1;P1;durP2;ratioP2;P2;SDS_P1;SDS_P2;PMS_P1;PMS_P2;Temp;Humidity;BMP_temperature;BMP_pressure;BME280_temperature;BME280_humidity;BME280_pressure;Samples;Min_cycle;Max_cycle;Signal;HPM_P1;HPM_P2
2024/04/14 00:00:33;;;;;;;4.63;3.03;;;;;;;;;;5465558;26;20486;-67
2024/04/14 00:02:59;;;;;;;6.82;4.25;;;;;;;;;;5422542;26;20023;-66
2024/04/14 00:05:26;;;;;;;7.90;3.83;;;;;;;;;;5461251;26;20019;-64
2024/04/14 00:07:52;;;;;;;3.75;3.13;;;;;;;;;;5463807;26;20471;-65
2024/04/14 00:10:19;;;;;;;4.90;3.10;;;;;;;;;;5460116;26;20034;-65
2024/04/14 00:12:45;;;;;;;5.13;3.00;;;;;;;;;;5461676;26;20101;-65
2024/04/14 00:15:11;;;;;;;4.07;2.53;;;;;;;;;;5454601;26;20023;-65
2024/04/14 00:17:38;;;;;;;3.55;2.50;;;;;;;;;;5464730;26;20073;-65
2024/04/14 00:20:08;;;;;;;3.78;3.00;;;;;;;;;;5476636;26;19998;-65
2024/04/14 00:22:34;;;;;;;4.93;2.45;;;;;;;;;;5456244;26;20026;-66
2024/04/14 00:25:00;;;;;;;5.68;2.42;;;;;;;;;;5454103;26;20038;-65
2024/04/14 00:27:26;;;;;;;3.60;2.47;;;;;;;;;;5446163;26;20485;-66
2024/04/14 00:29:52;;;;;;;5.15;2.67;;;;;;;;;;5471658;26;20036;-66
2024/04/14 00:32:18;;;;;;;3.33;2.50;;;;;;;;;;5438759;26;20031;-66
2024/04/14 00:34:44;;;;;;;4.68;2.53;;;;;;;;;;5455068;26;20367;-66
2024/04/14 00:37:10;;;;;;;3.17;2.40;;;;;;;;;;5477783;26;20018;-66
2024/04/14 00:39:36;;;;;;;4.13;2.28;;;;;;;;;;5460392;26;20038;-66
2024/04/14 00:42:03;;;;;;;3.65;2.40;;;;;;;;;;5430506;26;20022;-66
2024/04/14 00:44:29;;;;;;;4.47;3.38;;;;;;;;;;5460344;26;20032;-66
2024/04/14 00:46:56;;;;;;;3.20;2.47;;;;;;;;;;5467846;26;20041;-66
2024/04/14 00:49:23;;;;;;;3.38;2.50;;;;;;;;;;5475909;26;20022;-66
2024/04/14 00:51:51;;;;;;;4.55;2.50;;;;;;;;;;5464270;26;20386;-66
2024/04/14 00:54:18;;;;;;;3.85;2.60;;;;;;;;;;5463586;26;20027;-66
2024/04/14 00:56:47;;;;;;;3.03;2.63;;;;;;;;;;5470391;26;20024;-66
2024/04/14 00:59:14;;;;;;;3.20;2.42;;;;;;;;;;5391169;26;20006;-67
2024/04/14 01:01:40;;;;;;;6.75;2.78;;;;;;;;;;5454488;26;20019;-66
2024/04/14 01:04:09;;;;;;;4.70;2.80;;;;;;;;;;5457355;25;20023;-66
2024/04/14 01:06:36;;;;;;;4.90;2.50;;;;;;;;;;5467758;26;20017;-66
2024/04/14 01:09:08;;;;;;;4.15;3.17;;;;;;;;;;5471576;26;20266;-66
2024/04/14 01:11:34;;;;;;;6.25;2.70;;;;;;;;;;5458277;26;20030;-66
2024/04/14 01:14:05;;;;;;;5.05;2.63;;;;;;;;;;5466772;26;20027;-67
2024/04/14 01:16:36;;;;;;;3.97;2.60;;;;;;;;;;5453570;26;20022;-66
2024/04/14 01:19:06;;;;;;;4.03;2.67;;;;;;;;;;5467488;26;20021;-66
2024/04/14 01:21:33;;;;;;;2.60;2.35;;;;;;;;;;5475300;26;20373;-66
2024/04/14 01:23:59;;;;;;;4.30;2.58;;;;;;;;;;5471238;26;20031;-69
2024/04/14 01:26:25;;;;;;;3.25;2.35;;;;;;;;;;5470752;26;20046;-67
2024/04/14 01:28:51;;;;;;;3.65;2.30;;;;;;;;;;5459753;26;20030;-66
2024/04/14 01:31:18;;;;;;;4.30;2.90;;;;;;;;;;5468932;26;20023;-66
2024/04/14 01:33:45;;;;;;;5.35;3.03;;;;;;;;;;5453685;26;20039;-66
2024/04/14 01:36:11;;;;;;;2.92;2.38;;;;;;;;;;5466800;26;20026;-66
2024/04/14 01:38:37;;;;;;;3.00;2.40;;;;;;;;;;5470132;25;20018;-66
2024/04/14 01:41:04;;;;;;;6.10;2.65;;;;;;;;;;5459508;26;20043;-67
2024/04/14 01:43:30;;;;;;;3.22;2.28;;;;;;;;;;5472588;26;20023;-70
2024/04/14 01:45:56;;;;;;;3.83;2.63;;;;;;;;;;5455039;26;20017;-67
2024/04/14 01:48:22;;;;;;;2.95;2.50;;;;;;;;;;5458650;26;20054;-67
2024/04/14 01:50:49;;;;;;;4.97;2.40;;;;;;;;;;5470286;26;20490;-67
2024/04/14 01:53:16;;;;;;;6.15;3.28;;;;;;;;;;5468573;26;20031;-66
2024/04/14 01:55:43;;;;;;;4.43;2.70;;;;;;;;;;5474268;26;20022;-66
2024/04/14 01:58:09;;;;;;;3.50;2.20;;;;;;;;;;5464916;26;20038;-66
2024/04/14 02:00:36;;;;;;;4.18;2.35;;;;;;;;;;5464213;26;20019;-67
2024/04/14 02:03:03;;;;;;;2.88;2.30;;;;;;;;;;5444824;26;20025;-66
2024/04/14 02:05:29;;;;;;;3.30;2.20;;;;;;;;;;5459992;26;20034;-66
2024/04/14 02:07:55;;;;;;;3.33;2.67;;;;;;;;;;5463397;26;20026;-67
2024/04/14 02:10:21;;;;;;;3.38;2.22;;;;;;;;;;5460680;26;20026;-66
2024/04/14 02:12:48;;;;;;;4.82;2.25;;;;;;;;;;5467102;26;20374;-67
2024/04/14 02:15:14;;;;;;;5.15;1.88;;;;;;;;;;5464859;25;20106;-67
2024/04/14 02:17:40;;;;;;;4.70;2.22;;;;;;;;;;5472563;26;20031;-66
2024/04/14 02:20:10;;;;;;;5.68;2.25;;;;;;;;;;5476199;26;20452;-66
2024/04/14 02:22:36;;;;;;;4.25;2.35;;;;;;;;;;5473128;26;20027;-67
2024/04/14 02:25:03;;;;;;;4.30;2.33;;;;;;;;;;5478950;26;20031;-67
2024/04/14 02:27:29;;;;;;;2.85;2.35;;;;;;;;;;5480420;26;20030;-65
2024/04/14 02:29:55;;;;;;;3.72;2.17;;;;;;;;;;5469336;26;20077;-67
2024/04/14 02:32:21;;;;;;;5.57;2.30;;;;;;;;;;5459620;26;20028;-66
2024/04/14 02:34:47;;;;;;;3.65;2.63;;;;;;;;;;5428272;26;20022;-66
2024/04/14 02:37:13;;;;;;;3.75;2.10;;;;;;;;;;5471295;26;20051;-66
2024/04/14 02:39:39;;;;;;;4.72;2.20;;;;;;;;;;5468612;26;20033;-66
2024/04/14 02:42:05;;;;;;;3.20;2.30;;;;;;;;;;5466817;26;20018;-66
2024/04/14 02:44:31;;;;;;;4.88;2.25;;;;;;;;;;5474175;26;20022;-66
2024/04/14 02:46:57;;;;;;;4.80;2.70;;;;;;;;;;5487917;26;20384;-65
2024/04/14 02:49:26;;;;;;;5.60;2.53;;;;;;;;;;5476197;25;20019;-66
2024/04/14 02:51:52;;;;;;;5.53;2.38;;;;;;;;;;5472027;26;20031;-66
2024/04/14 02:54:18;;;;;;;4.70;2.30;;;;;;;;;;5472065;26;20509;-66
2024/04/14 02:56:44;;;;;;;3.90;2.28;;;;;;;;;;5476039;26;20045;-65
2024/04/14 02:59:10;;;;;;;4.68;2.40;;;;;;;;;;5456237;26;20037;-66
2024/04/14 03:01:36;;;;;;;5.13;2.53;;;;;;;;;;5466584;26;20034;-65
2024/04/14 03:04:02;;;;;;;5.43;3.20;;;;;;;;;;5471717;26;20035;-66
2024/04/14 03:06:28;;;;;;;5.97;2.90;;;;;;;;;;5459281;26;20031;-66
2024/04/14 03:08:54;;;;;;;4.25;2.47;;;;;;;;;;5461850;26;20363;-65
2024/04/14 03:11:20;;;;;;;5.47;2.60;;;;;;;;;;5466979;26;20035;-65
2024/04/14 03:13:46;;;;;;;5.45;2.40;;;;;;;;;;5474077;26;20038;-65
2024/04/14 03:16:13;;;;;;;4.50;2.38;;;;;;;;;;5486966;26;20041;-67
2024/04/14 03:18:39;;;;;;;5.43;2.47;;;;;;;;;;5484478;26;20525;-66
2024/04/14 03:21:05;;;;;;;4.60;2.67;;;;;;;;;;5488159;26;20029;-66
2024/04/14 03:23:32;;;;;;;4.72;2.50;;;;;;;;;;5478146;26;20035;-66
2024/04/14 03:25:58;;;;;;;3.10;2.13;;;;;;;;;;5460696;26;20481;-66
2024/04/14 03:28:27;;;;;;;4.57;2.40;;;;;;;;;;5468974;26;20027;-66
2024/04/14 03:30:58;;;;;;;4.88;2.58;;;;;;;;;;5462333;26;20042;-66
2024/04/14 03:33:25;;;;;;;4.28;2.50;;;;;;;;;;5460742;26;20019;-66
2024/04/14 03:36:02;;;;;;;5.18;2.75;;;;;;;;;;5471302;26;20049;-67
2024/04/14 03:38:29;;;;;;;4.38;2.47;;;;;;;;;;5469326;26;20034;-66
2024/04/14 03:40:55;;;;;;;5.22;2.30;;;;;;;;;;5460358;26;20030;-66
2024/04/14 03:43:21;;;;;;;4.32;2.08;;;;;;;;;;5470961;26;20039;-67
2024/04/14 03:45:47;;;;;;;3.50;2.22;;;;;;;;;;5485114;26;20026;-65
2024/04/14 03:48:13;;;;;;;3.85;2.10;;;;;;;;;;5459330;26;20069;-67
2024/04/14 03:50:39;;;;;;;4.03;2.10;;;;;;;;;;5469157;26;20026;-66
2024/04/14 03:53:06;;;;;;;3.30;2.00;;;;;;;;;;5431311;26;20016;-66
2024/04/14 03:55:32;;;;;;;5.47;2.40;;;;;;;;;;5459103;26;20040;-66
2024/04/14 03:57:58;;;;;;;3.83;2.20;;;;;;;;;;5461323;26;20039;-67
2024/04/14 04:00:24;;;;;;;3.10;1.92;;;;;;;;;;5463206;25;20711;-66
2024/04/14 04:02:51;;;;;;;3.88;2.20;;;;;;;;;;5459786;26;20479;-66
2024/04/14 04:05:17;;;;;;;3.97;2.42;;;;;;;;;;5469221;26;20379;-66
2024/04/14 04:07:47;;;;;;;3.30;1.77;;;;;;;;;;5470856;26;20075;-65
2024/04/14 04:10:13;;;;;;;3.78;2.17;;;;;;;;;;5463529;26;20077;-66
2024/04/14 04:12:40;;;;;;;5.07;2.10;;;;;;;;;;5465916;26;20027;-66
2024/04/14 04:15:06;;;;;;;3.85;2.53;;;;;;;;;;5441410;26;20062;-66
2024/04/14 04:17:32;;;;;;;3.17;2.10;;;;;;;;;;5458250;26;20026;-63
2024/04/14 04:19:58;;;;;;;4.07;2.22;;;;;;;;;;5474022;26;20033;-65
2024/04/14 04:22:24;;;;;;;3.40;2.50;;;;;;;;;;5479205;26;20027;-65
2024/04/14 04:24:50;;;;;;;4.90;2.28;;;;;;;;;;5464830;26;20039;-66
2024/04/14 04:27:17;;;;;;;3.85;2.33;;;;;;;;;;5469799;26;20501;-65
2024/04/14 04:29:43;;;;;;;4.88;2.33;;;;;;;;;;5454479;26;20033;-66
2024/04/14 04:32:09;;;;;;;2.50;2.03;;;;;;;;;;5473766;26;20017;-66
2024/04/14 04:34:35;;;;;;;3.55;2.00;;;;;;;;;;5442062;26;20029;-66
2024/04/14 04:37:01;;;;;;;4.07;2.35;;;;;;;;;;5479317;26;20033;-66
2024/04/14 04:39:27;;;;;;;4.95;2.50;;;;;;;;;;5469107;26;20027;-65
2024/04/14 04:41:53;;;;;;;2.35;2.13;;;;;;;;;;5476693;26;20029;-66
2024/04/14 04:44:19;;;;;;;6.88;2.60;;;;;;;;;;5478901;26;20039;-66
2024/04/14 04:46:45;;;;;;;4.20;2.58;;;;;;;;;;5475308;26;20047;-67
2024/04/14 04:49:11;;;;;;;3.38;2.40;;;;;;;;;;5473316;26;20388;-66
2024/04/14 04:51:37;;;;;;;3.65;1.90;;;;;;;;;;5469741;26;20378;-66
2024/04/14 04:54:05;;;;;;;3.22;2.40;;;;;;;;;;5456946;26;20026;-66
2024/04/14 04:56:31;;;;;;;4.00;2.13;;;;;;;;;;5464444;26;20030;-65
2024/04/14 04:58:57;;;;;;;3.25;1.90;;;;;;;;;;5458523;26;20009;-66
2024/04/14 05:01:23;;;;;;;2.85;2.05;;;;;;;;;;5460059;26;20020;-66
2024/04/14 05:03:50;;;;;;;2.55;2.20;;;;;;;;;;5459464;26;20013;-66
2024/04/14 05:06:16;;;;;;;2.95;2.00;;;;;;;;;;5457357;26;20009;-63
2024/04/14 05:08:43;;;;;;;4.18;2.28;;;;;;;;;;5467949;26;20030;-61
2024/04/14 05:11:09;;;;;;;3.90;2.10;;;;;;;;;;5467849;26;20035;-61
2024/04/14 05:13:35;;;;;;;3.83;2.00;;;;;;;;;;5475172;26;20042;-62
2024/04/14 05:16:03;;;;;;;3.30;2.20;;;;;;;;;;5476191;26;20041;-59
2024/04/14 05:18:29;;;;;;;3.58;2.00;;;;;;;;;;5473188;25;19999;-62
2024/04/14 05:20:55;;;;;;;4.20;2.38;;;;;;;;;;5475287;26;20026;-65
2024/04/14 05:23:21;;;;;;;4.85;2.38;;;;;;;;;;5466182;26;20002;-63
2024/04/14 05:25:48;;;;;;;3.25;2.22;;;;;;;;;;5471876;26;20009;-62
2024/04/14 05:28:15;;;;;;;2.60;2.00;;;;;;;;;;5460476;26;20043;-62
2024/04/14 05:30:41;;;;;;;5.20;2.20;;;;;;;;;;5462007;26;20049;-62
2024/04/14 05:33:07;;;;;;;3.67;2.10;;;;;;;;;;5464706;26;20034;-63
2024/04/14 05:35:33;;;;;;;3.80;1.80;;;;;;;;;;5464957;26;20039;-62
2024/04/14 05:37:59;;;;;;;3.40;1.70;;;;;;;;;;5476229;26;20029;-62
2024/04/14 05:40:25;;;;;;;3.70;2.20;;;;;;;;;;5461987;26;20385;-62
2024/04/14 05:42:54;;;;;;;4.43;1.85;;;;;;;;;;5468728;26;20023;-62
2024/04/14 05:45:25;;;;;;;3.05;1.98;;;;;;;;;;5479518;26;20018;-61
2024/04/14 05:47:51;;;;;;;;;;;;;;;;;;5473365;26;20023;-62
2024/04/14 05:50:17;;;;;;;4.07;1.90;;;;;;;;;;5470949;26;19947;-62
2024/04/14 05:52:43;;;;;;;4.30;2.40;;;;;;;;;;5454184;26;20039;-62
2024/04/14 05:55:10;;;;;;;3.60;1.90;;;;;;;;;;5477691;26;20026;-64
2024/04/14 05:57:36;;;;;;;3.05;1.70;;;;;;;;;;5482475;26;20022;-64
2024/04/14 06:00:02;;;;;;;3.38;2.08;;;;;;;;;;5475946;26;20038;-65
2024/04/14 06:02:28;;;;;;;2.58;1.70;;;;;;;;;;5475869;26;20038;-63
2024/04/14 06:04:55;;;;;;;2.78;1.90;;;;;;;;;;5480917;26;20481;-64
2024/04/14 06:07:21;;;;;;;4.53;2.28;;;;;;;;;;5479492;26;20378;-63
2024/04/14 06:09:47;;;;;;;5.93;2.35;;;;;;;;;;5468997;26;20026;-62
2024/04/14 06:12:13;;;;;;;2.75;1.92;;;;;;;;;;5461930;26;20474;-66
2024/04/14 06:14:39;;;;;;;5.20;2.90;;;;;;;;;;5443735;26;20045;-63
2024/04/14 06:17:05;;;;;;;2.88;2.10;;;;;;;;;;5474586;26;20038;-62
2024/04/14 06:19:31;;;;;;;2.55;1.63;;;;;;;;;;5485451;26;20446;-62
2024/04/14 06:21:58;;;;;;;3.25;1.75;;;;;;;;;;5464239;26;20010;-63
2024/04/14 06:24:24;;;;;;;2.53;1.90;;;;;;;;;;5469320;26;20026;-62
2024/04/14 06:26:50;;;;;;;4.00;2.20;;;;;;;;;;5485324;26;20026;-60
2024/04/14 06:29:16;;;;;;;2.45;1.98;;;;;;;;;;5472463;26;20032;-61
2024/04/14 06:31:42;;;;;;;3.13;1.90;;;;;;;;;;5448252;26;20385;-62
2024/04/14 06:34:08;;;;;;;1.95;1.60;;;;;;;;;;5471072;26;20027;-63
2024/04/14 06:36:34;;;;;;;3.88;2.00;;;;;;;;;;5447054;26;20022;-63
2024/04/14 06:39:00;;;;;;;3.08;2.03;;;;;;;;;;5468170;26;20050;-61
2024/04/14 06:41:28;;;;;;;2.63;1.90;;;;;;;;;;5492148;26;20368;-62
2024/04/14 06:43:54;;;;;;;5.07;1.75;;;;;;;;;;5466439;26;20043;-63
2024/04/14 06:46:20;;;;;;;3.05;2.10;;;;;;;;;;5464160;26;20006;-62
2024/04/14 06:48:46;;;;;;;3.03;2.20;;;;;;;;;;5463760;25;20024;-63
2024/04/14 06:51:12;;;;;;;4.63;2.08;;;;;;;;;;5474152;26;20038;-67
2024/04/14 06:53:38;;;;;;;9.45;2.60;;;;;;;;;;5475880;26;20034;-67
2024/04/14 06:56:06;;;;;;;4.15;2.10;;;;;;;;;;5468883;26;20349;-66
2024/04/14 06:58:33;;;;;;;2.63;2.00;;;;;;;;;;5478096;26;19999;-68
2024/04/14 07:00:59;;;;;;;3.80;2.00;;;;;;;;;;5467894;26;20016;-67
2024/04/14 07:03:25;;;;;;;3.58;2.60;;;;;;;;;;5465441;26;20365;-64
2024/04/14 07:05:52;;;;;;;4.28;2.83;;;;;;;;;;5471544;26;20002;-65
2024/04/14 07:08:18;;;;;;;4.25;2.25;;;;;;;;;;5461898;26;20022;-65
2024/04/14 07:10:44;;;;;;;3.25;2.03;;;;;;;;;;5475142;26;20393;-64
2024/04/14 07:13:10;;;;;;;2.92;1.80;;;;;;;;;;5474144;26;20034;-65
2024/04/14 07:15:36;;;;;;;4.30;2.28;;;;;;;;;;5463887;26;20386;-65
2024/04/14 07:18:02;;;;;;;4.60;2.03;;;;;;;;;;5460177;26;20023;-65
2024/04/14 07:20:29;;;;;;;6.88;2.30;;;;;;;;;;5466429;26;20026;-64
2024/04/14 07:22:56;;;;;;;3.28;2.05;;;;;;;;;;5463665;26;20023;-64
2024/04/14 07:25:22;;;;;;;4.70;2.13;;;;;;;;;;5456999;26;20031;-65
2024/04/14 07:27:48;;;;;;;7.15;3.22;;;;;;;;;;5461655;26;20031;-66
2024/04/14 07:30:14;;;;;;;3.28;2.25;;;;;;;;;;5464044;26;20030;-65
2024/04/14 07:32:41;;;;;;;2.70;2.03;;;;;;;;;;5479987;26;20031;-64
2024/04/14 07:35:07;;;;;;;3.30;2.10;;;;;;;;;;5462954;26;20035;-65
2024/04/14 07:37:33;;;;;;;2.22;1.85;;;;;;;;;;5459069;26;20038;-65
2024/04/14 07:39:59;;;;;;;6.72;2.00;;;;;;;;;;5456546;26;20038;-65
2024/04/14 07:42:25;;;;;;;8.20;3.35;;;;;;;;;;5490984;26;20035;-65
2024/04/14 07:44:51;;;;;;;5.78;2.45;;;;;;;;;;5449090;26;20023;-66
2024/04/14 07:47:17;;;;;;;9.60;3.30;;;;;;;;;;5491065;26;20376;-66
2024/04/14 07:49:44;;;;;;;3.45;2.13;;;;;;;;;;5452022;26;20477;-63
2024/04/14 07:52:10;;;;;;;3.25;2.30;;;;;;;;;;5462343;26;20031;-65
2024/04/14 07:54:36;;;;;;;3.38;2.15;;;;;;;;;;5430059;26;20026;-64
2024/04/14 07:57:05;;;;;;;4.50;2.10;;;;;;;;;;5459282;26;20027;-66
2024/04/14 07:59:34;;;;;;;5.20;2.00;;;;;;;;;;5459535;26;20038;-64
2024/04/14 08:02:00;;;;;;;3.33;2.20;;;;;;;;;;5463306;26;20023;-64
2024/04/14 08:04:26;;;;;;;2.55;2.10;;;;;;;;;;5462160;26;20026;-63
2024/04/14 08:06:52;;;;;;;3.70;2.40;;;;;;;;;;5473570;25;20489;-64
2024/04/14 08:09:18;;;;;;;2.65;2.00;;;;;;;;;;5476495;26;20030;-65
2024/04/14 08:11:45;;;;;;;3.45;2.20;;;;;;;;;;5465478;26;20034;-64
2024/04/14 08:14:13;;;;;;;3.75;2.00;;;;;;;;;;5462242;26;20379;-65
2024/04/14 08:16:40;;;;;;;3.80;2.20;;;;;;;;;;5462360;26;20042;-65
2024/04/14 08:19:06;;;;;;;4.07;2.50;;;;;;;;;;5459176;26;20027;-64
2024/04/14 08:21:33;;;;;;;3.85;2.10;;;;;;;;;;5473480;26;20030;-66
2024/04/14 08:23:59;;;;;;;5.13;2.45;;;;;;;;;;5466548;26;20038;-65
2024/04/14 08:26:25;;;;;;;3.50;2.00;;;;;;;;;;5422767;26;20046;-65
2024/04/14 08:28:51;;;;;;;4.88;2.30;;;;;;;;;;5461740;26;20047;-65
2024/04/14 08:31:17;;;;;;;4.22;2.10;;;;;;;;;;5464114;26;20035;-65
2024/04/14 08:33:44;;;;;;;4.00;2.20;;;;;;;;;;5478996;26;20029;-65
2024/04/14 08:36:10;;;;;;;4.18;2.40;;;;;;;;;;5472697;26;20387;-65
2024/04/14 08:38:38;;;;;;;3.50;2.25;;;;;;;;;;5460827;26;20038;-65
2024/04/14 08:41:05;;;;;;;4.03;2.30;;;;;;;;;;5467386;26;20041;-65
2024/04/14 08:43:31;;;;;;;3.60;2.40;;;;;;;;;;5464050;26;20032;-65
2024/04/14 08:45:58;;;;;;;3.85;2.45;;;;;;;;;;5470481;26;20026;-64
2024/04/14 08:48:26;;;;;;;3.53;2.25;;;;;;;;;;5466102;26;20011;-65
2024/04/14 08:50:54;;;;;;;4.55;2.70;;;;;;;;;;5453475;26;20035;-65
2024/04/14 08:53:24;;;;;;;4.57;2.30;;;;;;;;;;5471102;26;20027;-65
2024/04/14 08:55:50;;;;;;;4.22;2.47;;;;;;;;;;5471729;26;20038;-65
2024/04/14 08:58:18;;;;;;;4.63;2.30;;;;;;;;;;5465365;26;20033;-66
2024/04/14 09:00:47;;;;;;;4.88;2.70;;;;;;;;;;5460018;26;20046;-65
2024/04/14 09:03:13;;;;;;;4.50;2.60;;;;;;;;;;5427397;26;20034;-66
2024/04/14 09:05:41;;;;;;;2.72;2.22;;;;;;;;;;5466507;26;20036;-65
2024/04/14 09:08:07;;;;;;;3.03;2.50;;;;;;;;;;5459895;26;20030;-65
2024/04/14 09:10:33;;;;;;;3.65;2.20;;;;;;;;;;5476583;26;20033;-66
2024/04/14 09:12:59;;;;;;;5.13;2.80;;;;;;;;;;5475286;26;20041;-65
2024/04/14 09:15:26;;;;;;;6.13;2.65;;;;;;;;;;5458665;26;20047;-65
2024/04/14 09:17:52;;;;;;;4.53;2.80;;;;;;;;;;5461625;26;20031;-65
2024/04/14 09:20:18;;;;;;;5.13;2.53;;;;;;;;;;5472250;26;20017;-64
2024/04/14 09:22:44;;;;;;;6.00;2.53;;;;;;;;;;5456143;26;20029;-65
2024/04/14 09:25:12;;;;;;;5.00;3.00;;;;;;;;;;5457660;26;20026;-65
2024/04/14 09:27:38;;;;;;;3.75;2.55;;;;;;;;;;5459562;26;20030;-65
2024/04/14 09:30:17;;;;;;;4.90;3.10;;;;;;;;;;5462404;26;20037;-65
2024/04/14 09:32:43;;;;;;;3.95;2.50;;;;;;;;;;5464112;26;20030;-62
2024/04/14 09:35:11;;;;;;;4.18;2.47;;;;;;;;;;5466115;26;20030;-63
2024/04/14 09:37:38;;;;;;;3.45;2.58;;;;;;;;;;5465163;26;20034;-63
2024/04/14 09:40:08;;;;;;;5.53;2.90;;;;;;;;;;5469359;26;20027;-65
2024/04/14 09:42:35;;;;;;;3.97;2.40;;;;;;;;;;5476362;26;20035;-62
2024/04/14 09:45:03;;;;;;;4.43;2.95;;;;;;;;;;5464867;26;20136;-63
2024/04/14 09:47:30;;;;;;;6.07;2.70;;;;;;;;;;5476316;26;20498;-63
2024/04/14 09:49:56;;;;;;;4.47;2.75;;;;;;;;;;5469653;26;20030;-62
2024/04/14 09:52:23;;;;;;;5.40;2.50;;;;;;;;;;5450655;26;20062;-62
2024/04/14 09:54:50;;;;;;;3.50;2.67;;;;;;;;;;5460724;26;20026;-63
2024/04/14 09:57:17;;;;;;;5.00;2.50;;;;;;;;;;5452353;26;20035;-63
2024/04/14 09:59:43;;;;;;;4.55;2.55;;;;;;;;;;5461987;26;20077;-64
2024/04/14 10:02:23;;;;;;;4.70;2.55;;;;;;;;;;5459162;26;20029;-63
2024/04/14 10:04:49;;;;;;;;;;;;;;;;;;5462568;26;20023;-65
2024/04/14 10:07:17;;;;;;;5.55;2.83;;;;;;;;;;5455918;26;19960;-63
2024/04/14 10:09:48;;;;;;;3.17;2.33;;;;;;;;;;5458922;26;20039;-63
2024/04/14 10:12:18;;;;;;;4.10;2.70;;;;;;;;;;5469354;26;20387;-63
2024/04/14 10:14:46;;;;;;;5.10;2.55;;;;;;;;;;5477061;26;20035;-63
2024/04/14 10:17:13;;;;;;;5.60;2.80;;;;;;;;;;5435485;26;20041;-63
2024/04/14 10:19:39;;;;;;;4.53;2.75;;;;;;;;;;5458670;26;20039;-63
2024/04/14 10:22:09;;;;;;;7.57;2.80;;;;;;;;;;5463960;26;20030;-63
2024/04/14 10:24:47;;;;;;;5.00;2.60;;;;;;;;;;5455822;26;20051;-63
2024/04/14 10:27:14;;;;;;;3.88;2.60;;;;;;;;;;5456287;26;20030;-63
2024/04/14 10:29:40;;;;;;;4.93;3.00;;;;;;;;;;5459444;26;20025;-63
2024/04/14 10:32:10;;;;;;;6.95;2.53;;;;;;;;;;5477013;26;20030;-62
2024/04/14 10:34:36;;;;;;;3.50;2.40;;;;;;;;;;5442176;26;20027;-63
2024/04/14 10:37:04;;;;;;;4.82;2.20;;;;;;;;;;5466602;26;20034;-62
2024/04/14 10:39:31;;;;;;;5.32;2.58;;;;;;;;;;5471015;26;20025;-62
2024/04/14 10:41:58;;;;;;;3.95;2.53;;;;;;;;;;5469968;26;20031;-63
2024/04/14 10:44:24;;;;;;;6.05;2.67;;;;;;;;;;5461260;26;20371;-63
2024/04/14 10:46:51;;;;;;;3.83;2.95;;;;;;;;;;5463219;26;20053;-64
2024/04/14 10:49:19;;;;;;;4.63;2.60;;;;;;;;;;5460984;26;20035;-61
2024/04/14 10:51:45;;;;;;;5.90;2.55;;;;;;;;;;5460536;26;20050;-64
2024/04/14 10:54:11;;;;;;;6.07;2.70;;;;;;;;;;5463985;26;20035;-64
2024/04/14 10:56:37;;;;;;;5.70;2.35;;;;;;;;;;5472943;26;20035;-64
2024/04/14 10:59:03;;;;;;;4.32;2.72;;;;;;;;;;5470132;26;20025;-63
2024/04/14 11:01:30;;;;;;;3.55;2.50;;;;;;;;;;5463406;26;20037;-62
2024/04/14 11:03:57;;;;;;;5.38;2.65;;;;;;;;;;5467846;26;20042;-62
2024/04/14 11:06:23;;;;;;;4.47;2.40;;;;;;;;;;5466677;26;20038;-62
2024/04/14 11:08:50;;;;;;;3.10;2.28;;;;;;;;;;5488715;26;20034;-64
2024/04/14 11:11:16;;;;;;;5.28;3.00;;;;;;;;;;5468213;26;20046;-63
2024/04/14 11:13:43;;;;;;;3.17;2.65;;;;;;;;;;5464051;26;20026;-63
2024/04/14 11:16:09;;;;;;;2.80;2.50;;;;;;;;;;5461911;26;20035;-63
2024/04/14 11:18:35;;;;;;;3.20;2.63;;;;;;;;;;5469071;26;20486;-63
2024/04/14 11:21:01;;;;;;;4.57;2.33;;;;;;;;;;5461126;26;20030;-62
2024/04/14 11:23:28;;;;;;;4.72;2.58;;;;;;;;;;5455576;26;20506;-62
2024/04/14 11:25:54;;;;;;;5.65;2.33;;;;;;;;;;5464344;26;20035;-63
2024/04/14 11:28:21;;;;;;;4.40;2.30;;;;;;;;;;5444050;26;20038;-63
2024/04/14 11:30:49;;;;;;;4.65;2.50;;;;;;;;;;5460859;26;20042;-62
2024/04/14 11:33:20;;;;;;;4.68;2.40;;;;;;;;;;5464317;26;20124;-64
2024/04/14 11:35:47;;;;;;;3.97;2.40;;;;;;;;;;5438892;26;20038;-64
2024/04/14 11:38:15;;;;;;;4.07;2.13;;;;;;;;;;5466531;26;20031;-63
2024/04/14 11:40:42;;;;;;;4.35;2.20;;;;;;;;;;5453937;26;20359;-64
2024/04/14 11:43:08;;;;;;;4.68;2.50;;;;;;;;;;5466116;26;20042;-63
2024/04/14 11:45:34;;;;;;;2.50;2.30;;;;;;;;;;5459217;26;20382;-63
2024/04/14 11:48:01;;;;;;;7.03;2.60;;;;;;;;;;5466340;26;20562;-64
2024/04/14 11:50:28;;;;;;;4.85;2.35;;;;;;;;;;5466030;26;20032;-64
2024/04/14 11:52:55;;;;;;;4.43;2.08;;;;;;;;;;5421537;26;20043;-63
2024/04/14 11:55:21;;;;;;;3.13;2.40;;;;;;;;;;5457106;26;20265;-65
2024/04/14 11:57:47;;;;;;;7.28;2.20;;;;;;;;;;5465914;26;20027;-64
2024/04/14 12:00:14;;;;;;;3.38;2.42;;;;;;;;;;5461375;26;20027;-64
2024/04/14 12:02:41;;;;;;;2.25;1.95;;;;;;;;;;5467668;26;20108;-64
2024/04/14 12:05:07;;;;;;;3.05;2.28;;;;;;;;;;5461711;26;20035;-64
2024/04/14 12:07:36;;;;;;;4.88;2.20;;;;;;;;;;5472782;26;20041;-64
2024/04/14 12:10:03;;;;;;;2.55;2.30;;;;;;;;;;5440469;26;20043;-64
2024/04/14 12:12:29;;;;;;;3.67;2.10;;;;;;;;;;5440814;26;20036;-64
2024/04/14 12:14:55;;;;;;;3.97;2.00;;;;;;;;;;5458878;26;20414;-64
2024/04/14 12:17:21;;;;;;;4.07;2.10;;;;;;;;;;5466263;26;20043;-65
2024/04/14 12:19:49;;;;;;;2.33;2.13;;;;;;;;;;5459269;26;20030;-64
2024/04/14 12:22:16;;;;;;;2.95;2.00;;;;;;;;;;5459943;26;20514;-63
2024/04/14 12:24:42;;;;;;;5.22;2.00;;;;;;;;;;5469673;26;20030;-64
2024/04/14 12:27:08;;;;;;;2.90;1.85;;;;;;;;;;5460369;26;20031;-64
2024/04/14 12:29:34;;;;;;;3.20;2.58;;;;;;;;;;5457638;26;20628;-64
2024/04/14 12:32:00;;;;;;;6.47;3.33;;;;;;;;;;5460127;26;20037;-63
2024/04/14 12:34:26;;;;;;;9.10;3.50;;;;;;;;;;5467750;26;20038;-64
2024/04/14 12:36:52;;;;;;;4.68;3.08;;;;;;;;;;5466064;26;20030;-64
2024/04/14 12:39:18;;;;;;;6.47;3.05;;;;;;;;;;5479579;26;20026;-64
2024/04/14 12:41:44;;;;;;;4.55;2.97;;;;;;;;;;5459526;26;20027;-64
2024/04/14 12:44:11;;;;;;;5.43;3.13;;;;;;;;;;5463864;26;20034;-64
2024/04/14 12:46:37;;;;;;;5.15;3.00;;;;;;;;;;5456810;26;20054;-63
2024/04/14 12:49:03;;;;;;;6.25;2.95;;;;;;;;;;5459653;26;20031;-64
2024/04/14 12:51:29;;;;;;;3.22;2.60;;;;;;;;;;5424046;26;20042;-63
2024/04/14 12:53:55;;;;;;;3.80;3.10;;;;;;;;;;5453879;26;20043;-64
2024/04/14 12:56:21;;;;;;;4.72;2.97;;;;;;;;;;5464906;26;20038;-64
2024/04/14 12:58:47;;;;;;;5.68;2.72;;;;;;;;;;5438456;26;20062;-64
2024/04/14 13:01:13;;;;;;;6.07;3.95;;;;;;;;;;5466338;26;20002;-63
2024/04/14 13:03:40;;;;;;;4.25;3.00;;;;;;;;;;5454008;26;20035;-64
2024/04/14 13:06:06;;;;;;;3.95;3.10;;;;;;;;;;5463891;25;20043;-64
2024/04/14 13:08:32;;;;;;;5.65;3.30;;;;;;;;;;5476216;26;20029;-64
2024/04/14 13:10:58;;;;;;;2.78;2.47;;;;;;;;;;5474851;26;20029;-64
2024/04/14 13:13:24;;;;;;;4.15;2.80;;;;;;;;;;5458748;26;20027;-64
2024/04/14 13:15:50;;;;;;;6.10;2.92;;;;;;;;;;5451819;26;20030;-64
2024/04/14 13:18:16;;;;;;;6.30;3.10;;;;;;;;;;5454614;26;20038;-64
2024/04/14 13:20:42;;;;;;;6.10;2.80;;;;;;;;;;5462119;26;19998;-64
2024/04/14 13:23:09;;;;;;;4.78;3.10;;;;;;;;;;5466937;26;20042;-64
2024/04/14 13:25:35;;;;;;;4.82;3.38;;;;;;;;;;5428763;26;20027;-64
2024/04/14 13:28:01;;;;;;;5.47;3.13;;;;;;;;;;5467794;26;20029;-64
2024/04/14 13:30:27;;;;;;;5.90;2.90;;;;;;;;;;5458907;26;20035;-64
2024/04/14 13:32:53;;;;;;;5.40;2.83;;;;;;;;;;5462892;26;20113;-64
2024/04/14 13:35:20;;;;;;;5.30;2.60;;;;;;;;;;5474333;26;20023;-65
2024/04/14 13:37:46;;;;;;;4.53;2.72;;;;;;;;;;5459225;26;21948;-65
2024/04/14 13:40:12;;;;;;;3.72;2.88;;;;;;;;;;5453505;26;20030;-64
2024/04/14 13:42:39;;;;;;;4.53;2.97;;;;;;;;;;5468380;26;20034;-64
2024/04/14 13:45:06;;;;;;;4.78;3.40;;;;;;;;;;5430363;26;20038;-63
2024/04/14 13:47:32;;;;;;;4.05;3.00;;;;;;;;;;5469891;26;20378;-64
2024/04/14 13:49:58;;;;;;;5.80;2.72;;;;;;;;;;5467396;26;20026;-64
2024/04/14 13:52:28;;;;;;;4.10;2.88;;;;;;;;;;5412122;26;20038;-65
2024/04/14 13:54:58;;;;;;;4.85;2.80;;;;;;;;;;5474643;26;20022;-64
2024/04/14 13:57:26;;;;;;;5.45;3.10;;;;;;;;;;5464422;26;20037;-64
2024/04/14 13:59:52;;;;;;;4.68;2.83;;;;;;;;;;5466741;26;20471;-64
2024/04/14 14:02:18;;;;;;;4.88;3.08;;;;;;;;;;5474751;26;20039;-64
2024/04/14 14:04:45;;;;;;;5.55;2.95;;;;;;;;;;5432065;26;20037;-63
2024/04/14 14:07:12;;;;;;;4.93;3.00;;;;;;;;;;5462903;26;20026;-64
2024/04/14 14:09:38;;;;;;;3.42;2.88;;;;;;;;;;5469655;26;20031;-64
2024/04/14 14:12:05;;;;;;;4.53;3.05;;;;;;;;;;5467480;26;20038;-64
2024/04/14 14:14:31;;;;;;;4.13;3.00;;;;;;;;;;5468717;26;20030;-63
2024/04/14 14:16:58;;;;;;;7.03;3.20;;;;;;;;;;5458865;26;20030;-64
2024/04/14 14:19:24;;;;;;;3.58;2.58;;;;;;;;;;5473020;26;20039;-64
2024/04/14 14:21:51;;;;;;;3.15;2.55;;;;;;;;;;5468282;26;20395;-64
2024/04/14 14:24:17;;;;;;;5.90;3.00;;;;;;;;;;5459821;26;20042;-64
2024/04/14 14:26:43;;;;;;;4.80;2.90;;;;;;;;;;5475910;26;20495;-64
2024/04/14 14:29:10;;;;;;;4.18;2.53;;;;;;;;;;5462228;26;20043;-64
2024/04/14 14:31:36;;;;;;;4.32;3.20;;;;;;;;;;5469873;26;20030;-64
2024/04/14 14:36:48;;;;;;;5.50;3.05;;;;;;;;;;5461162;26;20030;-64
2024/04/14 14:39:14;;;;;;;5.15;2.40;;;;;;;;;;5472094;26;20026;-64
2024/04/14 14:41:40;;;;;;;5.78;2.60;;;;;;;;;;5454656;26;20036;-64